createdAt,value
2018-01-02T00:02:15.523Z,53.10
2018-01-02T00:04:45.247Z,53.30
2018-01-02T00:07:15.004Z,53.30
2018-01-02T00:09:43.970Z,53.30
2018-01-02T00:12:12.928Z,53.30
2018-01-02T00:14:41.903Z,53.30
2018-01-02T00:17:10.877Z,53.50
2018-01-02T00:19:39.852Z,53.10
2018-01-02T00:22:08.815Z,52.90
2018-01-02T00:24:38.743Z,52.70
2018-01-02T00:27:08.483Z,53.10
2018-01-02T00:29:37.457Z,53.00
2018-01-02T00:32:06.416Z,53.10
2018-01-02T00:34:35.411Z,52.50
2018-01-02T00:37:04.368Z,52.90
2018-01-02T00:39:33.329Z,52.50
2018-01-02T00:42:02.327Z,52.50
2018-01-02T00:44:31.287Z,52.60
2018-01-02T00:47:00.260Z,52.30
2018-01-02T00:49:30.138Z,52.60
2018-01-02T00:52:00.157Z,53.30
2018-01-02T00:54:29.061Z,52.70
2018-01-02T00:56:58.027Z,52.40
2018-01-02T00:59:26.992Z,52.20
2018-01-02T01:01:55.967Z,52.80
2018-01-02T01:04:24.932Z,52.10
2018-01-02T01:06:53.888Z,52.80
2018-01-02T01:09:22.867Z,52.90
2018-01-02T01:11:51.835Z,52.90
2018-01-02T01:14:21.559Z,53.70
2018-01-02T01:16:51.307Z,53.70
2018-01-02T01:19:20.270Z,53.50
2018-01-02T01:21:49.220Z,53.80
2018-01-02T01:24:18.211Z,54.00
2018-01-02T01:26:47.935Z,55.20
2018-01-02T01:29:17.683Z,55.70
2018-01-02T01:31:46.643Z,55.60
2018-01-02T01:34:15.599Z,55.90
2018-01-02T01:36:44.577Z,55.80
2018-01-02T01:39:14.312Z,57.40
2018-01-02T01:41:44.163Z,57.40
2018-01-02T01:44:13.129Z,57.40
2018-01-02T01:46:42.077Z,57.30
2018-01-02T01:49:11.055Z,58.40
2018-01-02T01:51:40.787Z,59.00
2018-01-02T01:54:10.532Z,58.90
2018-01-02T01:56:39.496Z,58.90
2018-01-02T01:59:08.456Z,59.50
2018-01-02T02:01:37.420Z,59.50
2018-01-02T02:04:07.147Z,59.40
2018-01-02T02:06:36.895Z,59.50
2018-01-02T02:09:05.851Z,59.50
2018-01-02T02:11:34.807Z,60.20
2018-01-02T02:14:03.783Z,59.60
2018-01-02T02:16:32.744Z,59.40
2018-01-02T02:19:01.727Z,58.90
2018-01-02T02:21:30.691Z,58.90
2018-01-02T02:23:59.657Z,59.30
2018-01-02T02:26:28.638Z,59.50
2018-01-02T02:28:58.363Z,59.60
2018-01-02T02:31:28.094Z,59.60
2018-01-02T02:33:57.835Z,59.30
2018-01-02T02:36:26.800Z,59.30
2018-01-02T02:38:55.767Z,59.50
2018-01-02T02:41:24.732Z,59.60
2018-01-02T02:43:54.473Z,59.60
2018-01-02T02:46:23.435Z,59.50
2018-01-02T02:48:53.175Z,59.70
2018-01-02T02:51:22.135Z,59.70
2018-01-02T02:53:51.129Z,59.50
2018-01-02T02:56:20.091Z,59.30
2018-01-02T02:58:49.051Z,59.50
2018-01-02T03:01:18.045Z,59.80
2018-01-02T03:03:46.999Z,59.90
2018-01-02T04:28:15.172Z,63.20
2018-01-02T04:30:44.131Z,63.20
2018-01-02T04:33:13.097Z,62.90
2018-01-02T04:35:42.091Z,63.00
2018-01-02T04:38:11.052Z,63.00
2018-01-02T04:40:40.009Z,62.90
2018-01-02T04:43:08.984Z,63.10
2018-01-02T04:45:38.711Z,62.90
2018-01-02T04:48:08.468Z,63.10
2018-01-02T04:50:37.436Z,63.00
2018-01-02T04:53:06.395Z,62.60
2018-01-02T04:55:35.390Z,62.70
2018-01-02T04:58:04.356Z,62.70
2018-01-02T05:00:33.330Z,62.70
2018-01-02T05:03:02.296Z,62.40
2018-01-02T05:05:32.027Z,62.90
2018-01-02T05:08:01.014Z,62.90
2018-01-02T05:10:29.971Z,62.80
2018-01-02T05:12:58.937Z,62.70
2018-01-02T05:15:28.692Z,62.90
2018-01-02T05:17:57.653Z,62.90
2018-01-02T05:20:26.612Z,63.10
2018-01-02T05:22:55.619Z,63.00
2018-01-02T05:25:24.547Z,62.80
2018-01-02T05:27:53.508Z,62.60
2018-01-02T05:33:05.911Z,62.50
2018-01-02T05:35:35.660Z,62.10
2018-01-02T05:38:04.628Z,62.10
2018-01-02T05:40:33.591Z,63.50
2018-01-02T05:43:03.320Z,63.30
2018-01-02T05:45:33.069Z,63.30
2018-01-02T05:48:02.023Z,63.30
2018-01-02T05:50:31.019Z,63.30
2018-01-02T05:52:59.980Z,63.20
2018-01-02T05:55:28.945Z,63.20
2018-01-02T05:57:57.915Z,63.10
2018-01-02T06:00:27.824Z,62.80
2018-01-02T06:02:56.813Z,62.70
2018-01-02T06:05:26.539Z,63.10
2018-01-02T06:07:56.285Z,63.30
2018-01-02T06:10:25.251Z,63.20
2018-01-02T06:12:54.216Z,63.10
2018-01-02T06:15:23.207Z,63.10
2018-01-02T06:17:52.171Z,62.90
2018-01-02T06:20:21.133Z,62.20
2018-01-02T06:22:50.100Z,62.30
2018-01-02T06:25:19.843Z,62.30
2018-01-02T06:27:48.824Z,62.20
2018-01-02T06:30:19.409Z,62.30
2018-01-02T06:32:48.368Z,62.30
2018-01-02T06:35:17.336Z,62.30
2018-01-02T06:37:46.319Z,62.30
2018-01-02T06:40:16.300Z,62.30
2018-01-02T06:42:45.247Z,62.30
2018-01-02T06:45:14.994Z,62.30
2018-01-02T06:47:43.956Z,62.30
2018-01-02T06:50:12.920Z,62.30
2018-01-02T06:52:41.918Z,62.30
2018-01-02T06:55:10.877Z,62.60
2018-01-02T06:57:39.851Z,63.20
2018-01-02T07:00:08.850Z,63.40
2018-01-02T07:02:37.813Z,63.50
2018-01-02T07:05:07.542Z,63.00
2018-01-02T07:07:37.288Z,63.00
2018-01-02T07:10:06.252Z,62.90
2018-01-02T07:12:35.228Z,62.80
2018-01-02T07:15:04.198Z,62.80
2018-01-02T07:17:33.938Z,63.70
2018-01-02T07:20:02.927Z,63.60
2018-01-02T07:22:32.668Z,63.20
2018-01-02T07:25:01.645Z,63.10
2018-01-02T07:27:30.624Z,61.90
2018-01-02T07:29:59.595Z,61.90
2018-01-02T07:32:28.587Z,61.90
2018-01-02T07:34:57.785Z,61.80
2018-01-02T07:37:26.761Z,61.80
2018-01-02T07:39:55.731Z,61.70
2018-01-02T07:42:24.728Z,61.70
2018-01-02T07:44:53.684Z,60.50
2018-01-02T07:47:22.640Z,60.80
2018-01-02T07:49:52.400Z,61.00
2018-01-02T07:52:21.356Z,61.00
2018-01-02T07:54:51.088Z,61.60
2018-01-02T07:57:20.856Z,61.70
2018-01-02T07:59:49.817Z,61.70
2018-01-02T08:02:19.545Z,61.80
2018-01-02T08:04:49.307Z,62.00
2018-01-02T08:07:18.482Z,61.90
2018-01-02T08:09:48.201Z,61.80
2018-01-02T08:12:17.956Z,60.50
2018-01-02T08:14:46.912Z,60.40
2018-01-02T08:17:15.876Z,60.10
2018-01-02T08:19:44.859Z,60.70
2018-01-02T08:22:14.603Z,61.30
2018-01-02T08:24:43.559Z,61.20
2018-01-02T08:27:12.535Z,61.40
2018-01-02T08:29:41.509Z,61.40
2018-01-02T08:32:12.165Z,61.20
2018-01-02T08:34:41.123Z,61.20
2018-01-02T08:37:10.096Z,61.70
2018-01-02T08:39:39.077Z,60.90
2018-01-02T08:42:08.820Z,60.30
2018-01-02T08:44:37.779Z,60.30
2018-01-02T08:47:06.759Z,60.60
2018-01-02T08:49:35.730Z,60.50
2018-01-02T08:52:05.259Z,60.50
2018-01-02T08:54:34.222Z,60.30
2018-01-02T08:57:04.104Z,60.90
2018-01-02T08:59:33.068Z,60.80
2018-01-02T09:02:02.052Z,60.40
2018-01-02T09:04:31.019Z,60.30
2018-01-02T09:06:59.989Z,59.80
2018-01-02T09:09:28.967Z,60.10
2018-01-02T09:11:57.935Z,60.50
2018-01-02T09:14:26.921Z,60.70
2018-01-02T09:16:56.652Z,61.10
2018-01-02T09:19:26.717Z,61.20
2018-01-02T09:21:55.684Z,61.20
2018-01-02T09:24:25.431Z,61.10
2018-01-02T09:26:54.399Z,61.10
2018-01-02T09:29:23.385Z,60.90
2018-01-02T09:31:52.347Z,61.00
2018-01-02T09:34:21.331Z,61.10
2018-01-02T09:36:50.300Z,60.60
2018-01-02T09:39:19.303Z,60.70
2018-01-02T09:41:48.263Z,60.90
2018-01-02T09:44:18.019Z,60.50
2018-01-02T09:46:46.980Z,60.50
2018-01-02T09:49:15.944Z,60.50
2018-01-02T09:51:44.927Z,60.30
2018-01-02T09:54:13.892Z,60.90
2018-01-02T09:56:42.877Z,60.80
2018-01-02T09:59:11.835Z,60.80
2018-01-02T10:01:41.579Z,60.90
2018-01-02T10:04:10.568Z,60.90
2018-01-02T10:06:40.304Z,60.90
2018-01-02T10:09:10.061Z,60.40
2018-01-02T10:11:39.029Z,60.40
2018-01-02T10:14:08.776Z,60.60
2018-01-02T10:16:37.747Z,60.50
2018-01-02T10:19:06.735Z,60.50
2018-01-02T10:21:35.703Z,60.40
2018-01-02T10:24:04.700Z,59.90
2018-01-02T10:26:33.663Z,59.40
2018-01-02T10:29:02.639Z,59.70
2018-01-02T10:31:31.631Z,59.70
2018-01-02T10:34:00.616Z,59.60
2018-01-02T10:36:30.367Z,59.20
2018-01-02T10:38:59.340Z,59.20
2018-01-02T10:41:28.339Z,59.50
2018-01-02T10:43:57.304Z,59.70
2018-01-02T10:46:26.273Z,60.00
2018-01-02T10:48:56.028Z,60.20
2018-01-02T10:51:25.030Z,60.20
2018-01-02T10:53:54.004Z,60.20
2018-01-02T10:56:23.767Z,60.50
2018-01-02T10:58:52.748Z,59.90
2018-01-02T11:01:28.415Z,59.80
2018-01-02T11:03:58.156Z,60.10
2018-01-02T11:06:27.155Z,60.00
2018-01-02T11:08:56.131Z,60.00
2018-01-02T11:11:30.818Z,60.10
2018-01-02T11:13:59.820Z,60.40
2018-01-02T11:16:28.855Z,60.50
2018-01-02T11:18:59.364Z,60.60
2018-01-02T11:21:29.175Z,60.80
2018-01-02T11:23:58.939Z,60.60
2018-01-02T11:26:27.936Z,60.50
2018-01-02T11:28:56.910Z,60.50
2018-01-02T11:31:25.909Z,60.90
2018-01-02T11:33:54.885Z,61.50
2018-01-02T11:36:25.664Z,61.00
2018-01-02T11:38:54.649Z,60.80
2018-01-02T11:41:23.622Z,61.20
2018-01-02T11:43:53.029Z,61.20
2018-01-02T11:46:22.768Z,61.30
2018-01-02T11:48:51.811Z,61.30
2018-01-02T11:51:20.764Z,61.30
2018-01-02T11:53:50.530Z,60.80
2018-01-02T11:56:19.495Z,60.70
2018-01-02T11:58:49.267Z,60.10
2018-01-02T12:01:18.239Z,60.00
2018-01-02T12:03:47.280Z,60.60
2018-01-02T12:06:16.267Z,60.30
2018-01-02T12:08:45.255Z,60.40
2018-01-02T12:11:15.012Z,61.50
2018-01-02T12:13:44.007Z,61.40
2018-01-02T12:16:13.000Z,61.10
2018-01-02T12:18:42.739Z,61.10
2018-01-02T12:21:11.731Z,61.00
2018-01-02T12:23:41.467Z,60.80
2018-01-02T12:26:10.460Z,60.80
2018-01-02T12:28:40.044Z,60.50
2018-01-02T12:31:09.092Z,60.60
2018-01-02T12:33:38.831Z,60.80
2018-01-02T12:36:07.826Z,60.80
2018-01-02T12:38:37.584Z,60.90
2018-01-02T12:41:06.563Z,60.90
2018-01-02T12:43:36.327Z,60.20
2018-01-02T12:46:05.304Z,60.10
2018-01-02T12:48:34.705Z,60.30
2018-01-02T12:51:03.679Z,60.20
2018-01-02T12:53:33.853Z,60.30
2018-01-02T12:56:02.918Z,59.90
2018-01-02T12:58:31.892Z,59.40
2018-01-02T13:01:00.916Z,59.20
2018-01-02T13:03:29.913Z,58.90
2018-01-02T13:05:58.884Z,59.30
2018-01-02T13:08:29.535Z,59.30
2018-01-02T13:10:59.305Z,58.80
2018-01-02T13:13:28.288Z,58.80
2018-01-02T13:15:57.376Z,58.70
2018-01-02T13:18:26.359Z,58.70
2018-01-02T13:20:55.339Z,58.70
2018-01-02T13:23:24.345Z,58.80
2018-01-02T13:25:53.316Z,58.60
2018-01-02T13:28:23.078Z,59.10
2018-01-02T13:30:52.055Z,59.10
2018-01-02T13:33:21.808Z,58.80
2018-01-02T13:35:51.424Z,58.80
2018-01-02T13:38:21.556Z,58.70
2018-01-02T13:40:50.562Z,58.70
2018-01-02T13:43:19.549Z,58.70
2018-01-02T13:45:49.307Z,58.70
2018-01-02T13:48:18.435Z,58.70
2018-01-02T13:50:48.218Z,58.80
2018-01-02T13:53:17.951Z,58.50
2018-01-02T13:55:46.943Z,58.50
2018-01-02T13:58:16.699Z,58.80
2018-01-02T14:00:45.668Z,58.80
2018-01-02T14:03:15.423Z,58.80
2018-01-02T14:05:44.400Z,58.80
2018-01-02T14:08:14.159Z,59.00
2018-01-02T14:10:43.615Z,59.00
2018-01-02T14:13:12.616Z,58.80
2018-01-02T14:15:41.584Z,58.80
2018-01-02T14:18:10.559Z,58.80
2018-01-02T14:20:39.545Z,58.90
2018-01-02T14:23:08.519Z,58.90
2018-01-02T14:25:37.519Z,58.90
2018-01-02T14:28:06.516Z,58.80
2018-01-02T14:30:36.272Z,58.90
2018-01-02T14:33:05.239Z,58.90
2018-01-02T14:35:34.999Z,58.90
2018-01-02T14:38:03.967Z,58.90
2018-01-02T14:40:33.736Z,58.50
2018-01-02T14:43:02.720Z,58.50
2018-01-02T14:45:31.696Z,58.30
2018-01-02T14:48:00.696Z,58.70
2018-01-02T14:50:29.929Z,58.50
2018-01-02T14:52:58.935Z,58.20
2018-01-02T14:55:28.039Z,58.10
2018-01-02T14:57:57.021Z,57.60
2018-01-02T15:00:25.988Z,57.40
2018-01-02T15:02:54.983Z,57.10
2018-01-02T15:05:24.730Z,57.50
2018-01-02T15:07:53.704Z,57.40
2018-01-02T15:10:23.455Z,58.40
2018-01-02T15:12:52.424Z,58.40
2018-01-02T15:15:21.424Z,58.40
2018-01-02T15:17:50.392Z,58.70
2018-01-02T15:20:19.379Z,59.30
2018-01-02T15:22:48.356Z,59.70
2018-01-02T15:25:17.351Z,60.00
2018-01-02T15:27:47.082Z,60.20
2018-01-02T15:30:16.075Z,60.80
2018-01-02T15:32:45.039Z,60.30
2018-01-02T15:35:14.032Z,60.60
2018-01-02T15:37:43.767Z,61.30
2018-01-02T15:40:12.763Z,61.30
2018-01-02T15:42:42.523Z,62.30
2018-01-02T15:45:11.495Z,62.30
2018-01-02T15:47:41.256Z,62.70
2018-01-02T15:50:10.219Z,62.70
2018-01-02T15:52:40.208Z,62.70
2018-01-02T15:55:09.179Z,62.70
2018-01-02T15:57:38.520Z,63.50
2018-01-02T16:00:07.459Z,63.70
2018-01-02T16:02:36.447Z,63.80
2018-01-02T16:05:05.455Z,63.90
2018-01-02T16:07:34.544Z,63.90
2018-01-02T16:10:03.515Z,63.80
2018-01-02T16:12:33.288Z,64.70
2018-01-02T16:15:02.280Z,64.70
2018-01-02T16:17:31.265Z,64.80
2018-01-02T16:20:01.023Z,64.70
2018-01-02T16:22:30.831Z,64.60
2018-01-02T16:24:59.831Z,64.20
2018-01-02T16:27:28.796Z,63.60
2018-01-02T16:29:57.771Z,63.60
2018-01-02T16:32:26.764Z,63.40
2018-01-02T16:34:55.735Z,63.30
2018-01-02T16:37:24.744Z,63.10
2018-01-02T16:39:53.712Z,63.60
2018-01-02T16:42:22.685Z,62.50
2018-01-02T16:44:51.676Z,62.50
2018-01-02T16:47:21.415Z,63.10
2018-01-02T16:49:50.412Z,63.00
2018-01-02T16:52:20.144Z,63.70
2018-01-02T16:54:49.905Z,63.40
2018-01-02T16:57:18.884Z,63.40
2018-01-02T16:59:47.871Z,63.60
2018-01-02T17:02:17.607Z,64.00
2018-01-02T17:04:47.376Z,63.90
2018-01-02T17:07:16.351Z,63.90
2018-01-02T17:09:45.319Z,63.70
2018-01-02T17:12:14.357Z,63.50
2018-01-02T17:14:43.308Z,63.80
2018-01-02T17:17:12.299Z,62.80
2018-01-02T17:19:41.275Z,62.20
2018-01-02T17:22:11.087Z,62.30
2018-01-02T17:24:40.079Z,62.20
2018-01-02T17:27:09.068Z,62.20
2018-01-02T17:29:38.076Z,62.30
2018-01-02T17:32:07.059Z,62.20
2018-01-02T17:34:36.048Z,62.20
2018-01-02T17:37:05.839Z,62.10
2018-01-02T17:39:34.828Z,62.60
2018-01-02T17:42:03.799Z,62.40
2018-01-02T17:44:32.791Z,62.10
2018-01-02T17:47:02.529Z,62.10
2018-01-02T17:49:32.279Z,62.40
2018-01-02T17:52:01.892Z,62.30
2018-01-02T17:54:30.912Z,62.50
2018-01-02T17:56:59.887Z,62.10
2018-01-02T17:59:29.643Z,62.20
2018-01-02T18:01:58.730Z,62.10
2018-01-02T18:04:28.487Z,62.30
2018-01-02T18:06:57.515Z,62.20
2018-01-02T18:09:26.496Z,62.20
2018-01-02T18:11:55.529Z,62.30
2018-01-02T18:14:24.487Z,62.30
2018-01-02T18:16:53.491Z,62.20
2018-01-02T18:19:22.475Z,62.30
2018-01-02T18:21:51.475Z,61.90
2018-01-02T18:24:20.447Z,62.00
2018-01-02T18:26:49.414Z,62.00
2018-01-02T18:29:18.400Z,61.90
2018-01-02T18:31:47.368Z,61.90
2018-01-02T18:34:16.355Z,61.90
2018-01-02T18:36:46.096Z,62.20
2018-01-02T18:39:15.087Z,62.10
2018-01-02T18:41:44.818Z,62.30
2018-01-02T18:44:13.834Z,62.20
2018-01-02T18:46:42.831Z,62.20
2018-01-02T18:49:12.596Z,62.10
2018-01-02T18:51:41.563Z,62.10
2018-01-02T18:54:11.443Z,62.20
2018-01-02T18:56:40.421Z,62.00
2018-01-02T18:59:09.420Z,62.20
2018-01-02T19:01:38.415Z,62.20
2018-01-02T19:04:08.159Z,62.30
2018-01-02T19:06:37.179Z,62.30
2018-01-02T19:09:06.191Z,62.30
2018-01-02T19:11:35.187Z,62.30
2018-01-02T19:14:04.160Z,61.80
2018-01-02T19:16:33.197Z,61.40
2018-01-02T19:19:02.161Z,61.30
2018-01-02T19:21:31.219Z,61.50
2018-01-02T19:24:00.189Z,61.60
2018-01-02T19:26:29.956Z,62.30
2018-01-02T19:28:58.936Z,61.60
2018-01-02T19:31:28.712Z,61.80
2018-01-02T19:33:57.663Z,61.50
2018-01-02T19:36:27.400Z,61.50
2018-01-02T19:38:57.152Z,61.20
2018-01-02T19:41:26.180Z,61.20
2018-01-02T19:43:55.151Z,61.40
2018-01-02T19:46:24.124Z,61.50
2018-01-02T19:48:53.116Z,61.50
2018-01-02T19:51:22.092Z,61.70
2018-01-02T19:53:51.072Z,61.60
2018-01-02T19:56:20.040Z,61.80
2018-01-02T19:58:49.028Z,62.30
2018-01-02T20:01:18.412Z,61.90
2018-01-02T20:03:47.431Z,61.90
2018-01-02T20:06:16.406Z,61.90
2018-01-02T20:08:46.183Z,61.40
2018-01-02T20:11:15.157Z,61.40
2018-01-02T20:13:44.140Z,61.30
2018-01-02T20:16:13.120Z,61.30
2018-01-02T20:18:42.096Z,61.40
2018-01-02T20:21:11.084Z,61.40
2018-01-02T20:23:40.836Z,61.50
2018-01-02T20:26:09.809Z,61.50
2018-01-02T20:28:39.559Z,61.10
2018-01-02T20:31:08.529Z,61.00
2018-01-02T20:33:37.527Z,60.80
2018-01-02T20:36:06.501Z,61.00
2018-01-02T20:38:35.471Z,60.80
2018-01-02T20:41:05.227Z,60.90
2018-01-02T20:43:34.201Z,60.80
2018-01-02T20:46:03.948Z,61.20
2018-01-02T20:48:32.947Z,61.00
2018-01-02T20:51:01.915Z,61.20
2018-01-02T20:53:30.887Z,61.50
2018-01-02T20:55:59.888Z,61.70
2018-01-02T20:58:28.854Z,61.90
2018-01-02T21:00:58.602Z,61.80
2018-01-02T21:03:27.587Z,61.80
2018-01-02T21:05:57.359Z,61.70
2018-01-02T21:08:26.345Z,61.70
2018-01-02T21:10:55.322Z,61.80
2018-01-02T21:13:24.317Z,61.80
2018-01-02T21:15:53.307Z,61.80
2018-01-02T21:18:22.306Z,61.70
2018-01-02T21:20:52.047Z,62.50
2018-01-02T21:23:21.039Z,62.10
2018-01-02T21:25:50.019Z,62.40
2018-01-02T21:28:18.979Z,62.80
2018-01-02T21:30:47.967Z,63.10
2018-01-02T21:33:16.935Z,63.60
2018-01-02T21:35:45.938Z,64.60
2018-01-02T21:38:14.907Z,64.10
2018-01-02T21:40:43.884Z,64.20
2018-01-02T21:43:13.640Z,64.60
2018-01-02T21:45:42.608Z,64.60
2018-01-02T21:48:11.622Z,64.70
2018-01-02T21:50:40.595Z,64.70
2018-01-02T21:53:09.589Z,64.40
2018-01-02T21:55:39.348Z,64.70
2018-01-02T21:58:08.356Z,64.60
2018-01-02T22:00:37.328Z,64.30
2018-01-02T22:03:07.095Z,64.40
2018-01-02T22:05:36.075Z,64.40
2018-01-02T22:08:05.840Z,63.70
2018-01-02T22:10:34.848Z,63.70
2018-01-02T22:13:03.823Z,63.40
2018-01-02T22:15:32.819Z,63.30
2018-01-02T22:18:02.563Z,63.30
2018-01-02T22:20:31.559Z,63.10
2018-01-02T22:23:01.308Z,62.90
2018-01-02T22:25:30.296Z,62.80
2018-01-02T22:27:59.295Z,63.10
2018-01-02T22:30:28.275Z,63.30
2018-01-02T22:32:57.287Z,63.60
2018-01-02T22:35:26.263Z,63.70
2018-01-02T22:37:55.237Z,63.90
2018-01-02T22:40:24.228Z,64.00
2018-01-02T22:42:53.987Z,64.30
2018-01-02T22:45:22.984Z,64.30
2018-01-02T22:47:51.960Z,64.70
2018-01-02T22:50:20.959Z,64.90
2018-01-02T22:52:49.943Z,64.90
2018-01-02T22:55:18.940Z,64.80
2018-01-02T22:57:47.920Z,64.80
2018-01-02T23:00:16.927Z,64.70
2018-01-02T23:02:45.903Z,64.70
2018-01-02T23:05:14.884Z,64.60
2018-01-02T23:07:43.879Z,65.10
2018-01-02T23:10:12.863Z,65.30
2018-01-02T23:12:41.862Z,65.50
2018-01-02T23:15:10.852Z,65.80
2018-01-02T23:17:39.824Z,65.80
2018-01-02T23:20:08.815Z,65.40
2018-01-02T23:22:37.793Z,65.70
2018-01-02T23:25:06.788Z,65.60
2018-01-02T23:27:36.531Z,65.80
2018-01-02T23:30:05.527Z,65.80
2018-01-02T23:32:35.267Z,65.90
2018-01-02T23:35:04.272Z,65.80
2018-01-02T23:37:33.243Z,66.00
2018-01-02T23:40:02.217Z,65.90
2018-01-02T23:42:31.215Z,66.20
2018-01-02T23:45:00.194Z,66.20
2018-01-02T23:47:29.167Z,66.30
2018-01-02T23:49:58.171Z,66.20
2018-01-02T23:52:27.146Z,65.80
2018-01-02T23:54:56.128Z,66.00
2018-01-02T23:57:25.138Z,65.80
2018-01-02T23:59:54.120Z,65.80
